« Back
NWS Peachtree City, Ga » Text Product » AHN Terminal Aerodrome Forecast


Printer-friendly Version
Current Version              Previous Versions:   1  2  3  4  5  6  7  8  9  

Terminal Aerodrome Forecast

799
FTAK31 PAJN 280500
TAFAHN
TAF
PAHN 280531Z 2806/2906 30005KT P6SM SKC
     FM281800 30012KT P6SM FEW100
     FM290300 30004KT P6SM SCT100
      AMD LTD TO CLD VIS AND WIND=

USA.gov is the U.S. government's official web portal to all federal, state and local government web resources and services.